Time;durP1;ratioP1;P1;durP2;ratioP2;P2;SDS_P1;SDS_P2;PMS_P1;PMS_P2;Temp;Humidity;BMP_temperature;BMP_pressure;BME280_temperature;BME280_humidity;BME280_pressure;Samples;Min_cycle;Max_cycle;Signal;HPM_P1;HPM_P2
2022/08/02 00:01:46;;;;;;;14.50;4.80;;;;;;;;;;5046050;28;19924;-80
2022/08/02 00:04:12;;;;;;;14.65;4.93;;;;;;;;;;5027294;28;20067;-80
2022/08/02 00:06:39;;;;;;;23.98;5.25;;;;;;;;;;5028642;28;20457;-73
2022/08/02 00:09:08;;;;;;;13.55;4.53;;;;;;;;;;5025692;28;20067;-74
2022/08/02 00:11:43;;;;;;;14.50;5.03;;;;;;;;;;5046136;28;20069;-74
2022/08/02 00:14:09;;;;;;;17.38;5.00;;;;;;;;;;5045078;28;20453;-74
2022/08/02 00:16:35;;;;;;;;;;;;;;;;;;5046166;28;20468;-72
2022/08/02 00:19:06;;;;;;;20.27;5.15;;;;;;;;;;5047066;28;20003;-72
2022/08/02 00:21:32;;;;;;;14.63;5.25;;;;;;;;;;5043636;28;20468;-76
2022/08/02 00:23:58;;;;;;;18.23;5.68;;;;;;;;;;5029423;28;20503;-74
2022/08/02 00:26:24;;;;;;;16.42;5.15;;;;;;;;;;5044106;28;20091;-73
2022/08/02 00:28:51;;;;;;;14.25;5.05;;;;;;;;;;5046831;28;20475;-76
2022/08/02 00:31:17;;;;;;;15.82;5.18;;;;;;;;;;5046520;28;20525;-77
2022/08/02 00:33:43;;;;;;;15.57;5.28;;;;;;;;;;5032930;28;20110;-73
2022/08/02 00:36:09;;;;;;;17.65;5.18;;;;;;;;;;5044962;28;20073;-76
2022/08/02 00:38:36;;;;;;;15.93;4.75;;;;;;;;;;5028684;28;20125;-75
2022/08/02 00:41:10;;;;;;;15.25;4.70;;;;;;;;;;5044707;28;20130;-75
2022/08/02 00:43:36;;;;;;;17.88;5.00;;;;;;;;;;5044352;28;20636;-75
2022/08/02 00:46:02;;;;;;;14.32;4.50;;;;;;;;;;5028896;28;20496;-73
2022/08/02 00:48:29;;;;;;;15.75;4.60;;;;;;;;;;5028094;28;20165;-73
2022/08/02 00:50:56;;;;;;;16.25;4.20;;;;;;;;;;5045247;28;20207;-75
2022/08/02 00:53:23;;;;;;;22.10;5.53;;;;;;;;;;5026728;28;20349;-75
2022/08/02 00:55:50;;;;;;;15.88;5.10;;;;;;;;;;5032278;28;20491;-73
2022/08/02 00:58:17;;;;;;;16.17;4.55;;;;;;;;;;5027618;28;20045;-73
2022/08/02 01:00:43;;;;;;;17.98;5.20;;;;;;;;;;5042871;28;20145;-73
2022/08/02 01:03:12;;;;;;;13.52;4.85;;;;;;;;;;5046232;28;20060;-74
2022/08/02 01:05:45;;;;;;;18.63;4.75;;;;;;;;;;5022942;28;20051;-84
2022/08/02 01:08:13;;;;;;;15.07;4.60;;;;;;;;;;5026691;28;20057;-72
2022/08/02 01:10:43;;;;;;;17.85;4.32;;;;;;;;;;5042132;28;20456;-72
2022/08/02 01:13:09;;;;;;;14.02;4.53;;;;;;;;;;5046428;28;20120;-74
2022/08/02 01:15:38;;;;;;;15.57;4.90;;;;;;;;;;5041294;28;20087;-75
2022/08/02 01:18:32;;;;;;;18.08;4.82;;;;;;;;;;5026883;28;20361;-71
2022/08/02 01:21:11;;;;;;;14.43;4.60;;;;;;;;;;5034020;28;20120;-71
2022/08/02 01:24:02;;;;;;;13.77;4.68;;;;;;;;;;5000532;28;20045;-72
2022/08/02 01:26:52;;;;;;;14.70;4.68;;;;;;;;;;5024224;28;20196;-70
2022/08/02 01:29:28;;;;;;;14.60;4.30;;;;;;;;;;5044603;28;20198;-69
2022/08/02 01:32:03;;;;;;;16.92;4.80;;;;;;;;;;5045174;28;20337;-68
2022/08/02 01:34:33;;;;;;;15.85;4.53;;;;;;;;;;5045546;28;20088;-71
2022/08/02 01:37:27;;;;;;;18.88;4.50;;;;;;;;;;5007836;28;20052;-68
2022/08/02 01:40:00;;;;;;;15.48;4.65;;;;;;;;;;5036260;28;20052;-68
2022/08/02 01:42:30;;;;;;;14.00;4.47;;;;;;;;;;5046066;28;20518;-69
2022/08/02 01:44:58;;;;;;;16.38;4.60;;;;;;;;;;5046157;28;20065;-68
2022/08/02 01:47:34;;;;;;;14.93;4.00;;;;;;;;;;5045802;28;20136;-68
2022/08/02 01:50:00;;;;;;;15.00;4.65;;;;;;;;;;5026239;28;20053;-68
2022/08/02 01:52:30;;;;;;;17.52;4.82;;;;;;;;;;5027008;28;20130;-69
2022/08/02 01:55:02;;;;;;;16.40;4.78;;;;;;;;;;5045089;28;20099;-68
2022/08/02 01:57:32;;;;;;;15.32;4.85;;;;;;;;;;5029842;28;20085;-76
2022/08/02 01:59:59;;;;;;;14.13;4.75;;;;;;;;;;5029137;28;20088;-69
2022/08/02 02:02:26;;;;;;;15.50;4.65;;;;;;;;;;5029698;28;20095;-68
2022/08/02 02:05:02;;;;;;;15.47;4.77;;;;;;;;;;5046391;28;20077;-76
2022/08/02 02:07:30;;;;;;;16.75;4.93;;;;;;;;;;5030268;28;20755;-77
2022/08/02 02:09:56;;;;;;;17.55;4.65;;;;;;;;;;5030889;28;20080;-69
2022/08/02 02:12:24;;;;;;;17.00;4.68;;;;;;;;;;5029007;28;20068;-69
2022/08/02 02:14:54;;;;;;;16.35;4.82;;;;;;;;;;5046473;28;20117;-69
2022/08/02 02:17:21;;;;;;;12.95;4.47;;;;;;;;;;5034562;28;20179;-69
2022/08/02 02:19:51;;;;;;;13.88;4.68;;;;;;;;;;5048648;28;20065;-69
2022/08/02 02:22:17;;;;;;;17.30;5.05;;;;;;;;;;5047630;28;20128;-69
2022/08/02 02:24:43;;;;;;;17.15;5.35;;;;;;;;;;5046013;28;20407;-70
2022/08/02 02:27:16;;;;;;;16.70;4.82;;;;;;;;;;5021575;28;20052;-69
2022/08/02 02:29:44;;;;;;;13.85;4.70;;;;;;;;;;5048243;28;20045;-69
2022/08/02 02:32:11;;;;;;;14.45;4.57;;;;;;;;;;5047665;28;20381;-70
2022/08/02 02:34:39;;;;;;;15.05;5.25;;;;;;;;;;5048334;28;20165;-70
2022/08/02 02:37:12;;;;;;;17.75;5.18;;;;;;;;;;5029360;28;20526;-68
2022/08/02 02:39:49;;;;;;;14.05;4.95;;;;;;;;;;5033955;28;20112;-68
2022/08/02 02:42:18;;;;;;;13.00;4.85;;;;;;;;;;5038254;28;20080;-76
2022/08/02 02:44:54;;;;;;;15.57;4.88;;;;;;;;;;5044744;28;20087;-69
2022/08/02 02:47:21;;;;;;;15.30;5.45;;;;;;;;;;5047605;28;20099;-80
2022/08/02 02:49:47;;;;;;;;;;;;;;;;;;5048510;28;20120;-72
2022/08/02 02:52:15;;;;;;;17.30;5.10;;;;;;;;;;5047406;28;20015;-71
2022/08/02 02:54:46;;;;;;;16.05;5.18;;;;;;;;;;5025686;28;20037;-71
2022/08/02 02:57:13;;;;;;;14.98;5.18;;;;;;;;;;5046707;28;20053;-72
2022/08/02 02:59:41;;;;;;;19.15;5.20;;;;;;;;;;5014154;28;20045;-70
2022/08/02 03:02:11;;;;;;;13.63;4.57;;;;;;;;;;5029177;28;20395;-73
2022/08/02 03:04:37;;;;;;;16.73;4.85;;;;;;;;;;5010097;28;20488;-76
2022/08/02 03:07:03;;;;;;;17.85;5.50;;;;;;;;;;5028923;28;20128;-75
2022/08/02 03:09:32;;;;;;;17.02;4.90;;;;;;;;;;5012033;28;20076;-69
2022/08/02 03:12:02;;;;;;;14.57;4.65;;;;;;;;;;5042616;28;20144;-70
2022/08/02 03:14:28;;;;;;;;;;;;;;;;;;5046294;28;20122;-72
2022/08/02 03:16:56;;;;;;;17.17;5.28;;;;;;;;;;5046131;28;19978;-71
2022/08/02 03:19:22;;;;;;;14.23;5.32;;;;;;;;;;5029847;28;20122;-69
2022/08/02 03:21:50;;;;;;;14.20;5.25;;;;;;;;;;5028844;28;20045;-69
2022/08/02 03:24:17;;;;;;;15.23;5.15;;;;;;;;;;5047535;28;20052;-68
2022/08/02 03:26:44;;;;;;;13.25;4.80;;;;;;;;;;5042444;28;20063;-71
2022/08/02 03:29:14;;;;;;;14.52;5.05;;;;;;;;;;5009593;28;20094;-70
2022/08/02 03:31:41;;;;;;;14.73;4.78;;;;;;;;;;5012294;28;20124;-76
2022/08/02 03:34:25;;;;;;;16.70;5.07;;;;;;;;;;5029106;28;20353;-74
2022/08/02 03:36:54;;;;;;;13.82;5.00;;;;;;;;;;5024789;28;20503;-74
2022/08/02 03:39:25;;;;;;;16.45;5.30;;;;;;;;;;5033226;28;20096;-76
2022/08/02 03:41:52;;;;;;;18.35;5.40;;;;;;;;;;5023218;28;20101;-76
2022/08/02 03:44:23;;;;;;;16.55;5.10;;;;;;;;;;5009451;28;20053;-69
2022/08/02 03:46:52;;;;;;;13.32;4.65;;;;;;;;;;5022772;28;20106;-73
2022/08/02 03:49:18;;;;;;;;;;;;;;;;;;5026293;28;20037;-69
2022/08/02 03:51:48;;;;;;;14.52;5.25;;;;;;;;;;5020078;28;19925;-73
2022/08/02 03:54:17;;;;;;;17.60;5.40;;;;;;;;;;5018715;28;20508;-71
2022/08/02 03:56:46;;;;;;;18.45;5.43;;;;;;;;;;5038849;28;20128;-70
2022/08/02 03:59:15;;;;;;;16.05;5.28;;;;;;;;;;5026509;28;20056;-70
2022/08/02 04:01:41;;;;;;;16.60;5.70;;;;;;;;;;5026878;28;20475;-72
2022/08/02 04:04:07;;;;;;;;;;;;;;;;;;5027129;28;20053;-68
2022/08/02 04:06:34;;;;;;;17.73;5.38;;;;;;;;;;5027291;28;19963;-69
2022/08/02 04:09:00;;;;;;;18.35;5.72;;;;;;;;;;5025793;28;20050;-67
2022/08/02 04:11:31;;;;;;;17.48;6.05;;;;;;;;;;5028182;28;20064;-67
2022/08/02 04:14:02;;;;;;;19.20;6.00;;;;;;;;;;5024115;28;20049;-67
2022/08/02 04:16:38;;;;;;;16.75;5.70;;;;;;;;;;5025307;28;20049;-67
2022/08/02 04:19:05;;;;;;;17.27;5.90;;;;;;;;;;5025864;28;20046;-67
2022/08/02 04:21:34;;;;;;;14.30;5.40;;;;;;;;;;5024312;28;20045;-67
2022/08/02 04:24:03;;;;;;;16.40;5.80;;;;;;;;;;5023469;28;20457;-69
2022/08/02 04:26:31;;;;;;;18.27;6.28;;;;;;;;;;5027751;28;20529;-67
2022/08/02 04:28:57;;;;;;;18.50;5.57;;;;;;;;;;5022890;28;20072;-68
2022/08/02 04:31:23;;;;;;;14.57;5.75;;;;;;;;;;5023051;28;20473;-71
2022/08/02 04:33:50;;;;;;;21.10;6.60;;;;;;;;;;5025768;28;20159;-76
2022/08/02 04:36:16;;;;;;;19.42;6.75;;;;;;;;;;5010109;28;20077;-69
2022/08/02 04:38:42;;;;;;;18.52;6.45;;;;;;;;;;5027396;28;20151;-67
2022/08/02 04:41:11;;;;;;;17.80;6.80;;;;;;;;;;5040125;28;20425;-68
2022/08/02 04:43:37;;;;;;;18.33;6.43;;;;;;;;;;5025204;28;20057;-67
2022/08/02 04:46:03;;;;;;;18.98;6.30;;;;;;;;;;5042519;28;20081;-68
2022/08/02 04:48:31;;;;;;;13.95;5.93;;;;;;;;;;5026801;28;20143;-69
2022/08/02 04:51:00;;;;;;;16.63;6.30;;;;;;;;;;5024966;28;20444;-68
2022/08/02 04:53:26;;;;;;;16.73;6.57;;;;;;;;;;5025898;28;20045;-68
2022/08/02 04:55:52;;;;;;;16.65;6.75;;;;;;;;;;5025981;28;20045;-76
2022/08/02 04:58:21;;;;;;;15.70;6.47;;;;;;;;;;5027358;28;20468;-73
2022/08/02 05:00:47;;;;;;;16.08;6.00;;;;;;;;;;5025977;28;20041;-69
2022/08/02 05:03:18;;;;;;;17.25;6.32;;;;;;;;;;5024049;28;20086;-69
2022/08/02 05:05:50;;;;;;;17.15;6.20;;;;;;;;;;5041277;28;20045;-70
2022/08/02 05:08:16;;;;;;;18.23;7.07;;;;;;;;;;5025795;28;20559;-68
2022/08/02 05:10:43;;;;;;;18.58;6.38;;;;;;;;;;5022782;28;20137;-69
2022/08/02 05:13:09;;;;;;;18.45;6.57;;;;;;;;;;5006432;28;20137;-69
2022/08/02 05:15:45;;;;;;;17.42;6.30;;;;;;;;;;5020130;28;20053;-72
2022/08/02 05:18:11;;;;;;;17.63;6.40;;;;;;;;;;5010791;28;20160;-77
2022/08/02 05:20:41;;;;;;;19.52;6.57;;;;;;;;;;5025976;28;20152;-68
2022/08/02 05:23:08;;;;;;;17.67;6.43;;;;;;;;;;5023770;28;20037;-69
2022/08/02 05:25:33;;;;;;;;;;;;;;;;;;5020772;28;20398;-71
2022/08/02 05:28:00;;;;;;;17.00;6.22;;;;;;;;;;5023917;28;19933;-70
2022/08/02 05:30:26;;;;;;;16.67;5.75;;;;;;;;;;5026929;28;20060;-68
2022/08/02 05:32:55;;;;;;;20.05;5.90;;;;;;;;;;5028036;28;20219;-68
2022/08/02 05:35:22;;;;;;;17.27;5.97;;;;;;;;;;5026585;28;20155;-70
2022/08/02 05:37:49;;;;;;;17.60;6.22;;;;;;;;;;5028712;28;20345;-75
2022/08/02 05:40:17;;;;;;;15.73;5.45;;;;;;;;;;5025723;28;20158;-73
2022/08/02 05:42:44;;;;;;;17.45;5.40;;;;;;;;;;5024093;28;20105;-72
2022/08/02 05:45:10;;;;;;;11.90;5.22;;;;;;;;;;5024321;28;20351;-68
2022/08/02 05:47:36;;;;;;;;;;;;;;;;;;5029862;28;20046;-71
2022/08/02 05:50:07;;;;;;;16.50;5.40;;;;;;;;;;5024473;28;20013;-71
2022/08/02 05:53:03;;;;;;;18.73;5.50;;;;;;;;;;5022888;28;20183;-69
2022/08/02 05:55:41;;;;;;;18.52;5.65;;;;;;;;;;5029687;28;20211;-71
2022/08/02 05:58:10;;;;;;;16.13;5.85;;;;;;;;;;5027151;28;20145;-75
2022/08/02 06:00:44;;;;;;;14.15;5.22;;;;;;;;;;5026390;28;20455;-70
2022/08/02 06:03:21;;;;;;;20.30;5.05;;;;;;;;;;5024629;28;20041;-70
2022/08/02 06:05:53;;;;;;;16.77;5.15;;;;;;;;;;5027517;28;20315;-70
2022/08/02 06:08:32;;;;;;;14.40;5.28;;;;;;;;;;5030003;28;20065;-83
2022/08/02 06:11:00;;;;;;;14.63;5.20;;;;;;;;;;5025388;28;20126;-87
2022/08/02 06:13:27;;;;;;;17.25;5.47;;;;;;;;;;5010194;28;20144;-71
2022/08/02 06:15:58;;;;;;;12.98;5.00;;;;;;;;;;5028377;28;20049;-71
2022/08/02 06:18:25;;;;;;;16.05;4.50;;;;;;;;;;5029868;28;20128;-67
2022/08/02 06:21:05;;;;;;;18.10;5.20;;;;;;;;;;5041531;28;20041;-73
2022/08/02 06:23:32;;;;;;;15.40;4.70;;;;;;;;;;5023071;28;21835;-69
2022/08/02 06:26:02;;;;;;;15.00;4.65;;;;;;;;;;5027631;28;20132;-70
2022/08/02 06:28:32;;;;;;;15.15;5.13;;;;;;;;;;5027588;28;20195;-68
2022/08/02 06:31:02;;;;;;;15.73;4.72;;;;;;;;;;5025261;28;20053;-70
2022/08/02 06:33:32;;;;;;;19.73;4.80;;;;;;;;;;5030570;28;20061;-70
2022/08/02 06:36:01;;;;;;;15.38;4.68;;;;;;;;;;5027572;28;20045;-76
2022/08/02 06:38:35;;;;;;;14.88;4.82;;;;;;;;;;5044005;28;20442;-74
2022/08/02 06:41:30;;;;;;;15.60;4.40;;;;;;;;;;5032012;28;20479;-69
2022/08/02 06:44:10;;;;;;;17.70;4.90;;;;;;;;;;5048945;28;20064;-71
2022/08/02 06:46:41;;;;;;;15.48;4.38;;;;;;;;;;5047020;28;20060;-71
2022/08/02 06:49:07;;;;;;;14.25;4.63;;;;;;;;;;5049032;28;20471;-82
2022/08/02 06:51:42;;;;;;;15.75;4.55;;;;;;;;;;5046900;28;20056;-71
2022/08/02 06:54:11;;;;;;;14.07;4.45;;;;;;;;;;5050129;28;20148;-77
2022/08/02 06:56:42;;;;;;;13.40;4.05;;;;;;;;;;5044924;28;20120;-74
2022/08/02 06:59:08;;;;;;;14.90;4.55;;;;;;;;;;5029802;28;20263;-78
2022/08/02 07:01:37;;;;;;;14.00;4.30;;;;;;;;;;5042971;28;20119;-72
2022/08/02 07:04:04;;;;;;;15.70;4.88;;;;;;;;;;5031388;28;20106;-70
2022/08/02 07:06:34;;;;;;;12.65;4.43;;;;;;;;;;5045318;28;20309;-72
2022/08/02 07:09:00;;;;;;;14.35;4.47;;;;;;;;;;5048447;28;20040;-70
2022/08/02 07:11:26;;;;;;;18.08;4.70;;;;;;;;;;5029843;28;20048;-75
2022/08/02 07:13:52;;;;;;;;;;;;;;;;;;5011596;28;20138;-69
2022/08/02 07:16:18;;;;;;;12.13;3.83;;;;;;;;;;5034481;28;19983;-72
2022/08/02 07:18:44;;;;;;;13.30;3.80;;;;;;;;;;5048183;28;20198;-75
2022/08/02 07:21:12;;;;;;;11.55;3.80;;;;;;;;;;5049002;28;20057;-72
2022/08/02 07:23:38;;;;;;;12.05;3.65;;;;;;;;;;5048016;28;20068;-76
2022/08/02 07:26:08;;;;;;;13.02;3.60;;;;;;;;;;5047301;28;20154;-74
2022/08/02 07:28:39;;;;;;;13.35;3.72;;;;;;;;;;5054582;28;20423;-70
2022/08/02 07:31:10;;;;;;;11.68;3.65;;;;;;;;;;5048658;28;20044;-70
2022/08/02 07:33:36;;;;;;;18.08;3.60;;;;;;;;;;5030436;28;20402;-76
2022/08/02 07:36:04;;;;;;;13.80;3.67;;;;;;;;;;5046760;28;20349;-71
2022/08/02 07:38:31;;;;;;;11.50;3.72;;;;;;;;;;5047635;28;20508;-73
2022/08/02 07:41:15;;;;;;;15.73;3.90;;;;;;;;;;5031580;28;20526;-71
2022/08/02 07:43:41;;;;;;;12.02;3.65;;;;;;;;;;5049322;28;20084;-70
2022/08/02 07:46:07;;;;;;;;;;;;;;;;;;5038852;28;20102;-72
2022/08/02 07:48:33;;;;;;;10.35;3.10;;;;;;;;;;5048007;28;20360;-68
2022/08/02 07:50:59;;;;;;;11.02;3.40;;;;;;;;;;5047952;28;20127;-66
2022/08/02 07:53:25;;;;;;;11.63;3.25;;;;;;;;;;5046465;28;20053;-69
2022/08/02 07:55:55;;;;;;;10.75;3.17;;;;;;;;;;5048712;28;20059;-72
2022/08/02 07:58:21;;;;;;;9.82;2.90;;;;;;;;;;5029772;28;20404;-71
2022/08/02 08:00:51;;;;;;;10.85;3.20;;;;;;;;;;5064341;28;20067;-69
2022/08/02 08:03:20;;;;;;;10.75;2.78;;;;;;;;;;5046719;28;20072;-74
2022/08/02 08:05:46;;;;;;;9.35;2.80;;;;;;;;;;5032931;28;20155;-73
2022/08/02 08:08:15;;;;;;;7.90;2.67;;;;;;;;;;5049122;28;20441;-74
2022/08/02 08:10:46;;;;;;;9.95;2.70;;;;;;;;;;5036211;28;20059;-70
2022/08/02 08:13:14;;;;;;;11.48;2.70;;;;;;;;;;5043735;28;20128;-81
2022/08/02 08:15:43;;;;;;;9.63;2.60;;;;;;;;;;5048224;28;20507;-84
2022/08/02 08:18:12;;;;;;;9.45;2.35;;;;;;;;;;5048282;28;20128;-72
2022/08/02 08:20:39;;;;;;;8.48;2.65;;;;;;;;;;5047950;28;20059;-72
2022/08/02 08:23:05;;;;;;;8.23;2.20;;;;;;;;;;5027730;28;20092;-73
2022/08/02 08:25:31;;;;;;;;;;;;;;;;;;5047735;28;20139;-70
2022/08/02 08:27:59;;;;;;;9.00;2.42;;;;;;;;;;5048074;28;20264;-70
2022/08/02 08:30:25;;;;;;;9.30;2.60;;;;;;;;;;5045383;28;20041;-69
2022/08/02 08:32:51;;;;;;;;;;;;;;;;;;5030222;28;20056;-69
2022/08/02 08:35:23;;;;;;;8.38;2.28;;;;;;;;;;5032121;28;19921;-73
2022/08/02 08:37:49;;;;;;;6.72;2.30;;;;;;;;;;5047114;28;20048;-68
2022/08/02 08:40:17;;;;;;;11.38;2.45;;;;;;;;;;5047950;28;20048;-67
2022/08/02 08:42:43;;;;;;;13.60;2.60;;;;;;;;;;5045550;28;20202;-73
2022/08/02 08:45:09;;;;;;;7.80;2.47;;;;;;;;;;5047169;28;20127;-67
2022/08/02 08:47:42;;;;;;;7.47;2.33;;;;;;;;;;5046331;28;20129;-73
2022/08/02 08:50:15;;;;;;;8.95;2.28;;;;;;;;;;5047059;28;20041;-68
2022/08/02 08:52:42;;;;;;;8.48;2.58;;;;;;;;;;5045369;28;20422;-69
2022/08/02 08:55:11;;;;;;;8.15;2.33;;;;;;;;;;5047687;28;20449;-71
2022/08/02 08:57:40;;;;;;;6.18;2.00;;;;;;;;;;5047202;28;20040;-78
2022/08/02 09:00:08;;;;;;;6.38;2.00;;;;;;;;;;5045934;28;20080;-73
2022/08/02 09:02:43;;;;;;;;;;;;;;;;;;5042918;28;20052;-78
2022/08/02 09:05:10;;;;;;;6.38;2.00;;;;;;;;;;5048246;28;19986;-71
2022/08/02 09:07:41;;;;;;;5.97;2.00;;;;;;;;;;5045570;28;20437;-68
2022/08/02 09:10:26;;;;;;;7.50;2.30;;;;;;;;;;5047032;28;20061;-73
2022/08/02 09:13:09;;;;;;;9.32;2.50;;;;;;;;;;5045424;28;20068;-74
2022/08/02 09:15:39;;;;;;;7.75;2.40;;;;;;;;;;5046608;28;20049;-75
2022/08/02 09:18:05;;;;;;;9.23;2.47;;;;;;;;;;5045946;28;20076;-70
2022/08/02 09:20:36;;;;;;;11.15;2.20;;;;;;;;;;5028798;28;20049;-88
2022/08/02 09:23:08;;;;;;;7.45;2.33;;;;;;;;;;5045700;28;20107;-68
2022/08/02 09:25:37;;;;;;;9.25;2.55;;;;;;;;;;5021963;28;20089;-67
2022/08/02 09:28:04;;;;;;;8.57;2.67;;;;;;;;;;5045413;28;20437;-74
2022/08/02 09:30:31;;;;;;;8.07;2.65;;;;;;;;;;5045943;28;20132;-74
2022/08/02 09:33:10;;;;;;;12.48;2.47;;;;;;;;;;5029500;28;20163;-68
2022/08/02 09:35:40;;;;;;;8.40;2.40;;;;;;;;;;5042070;28;20036;-71
2022/08/02 09:38:13;;;;;;;8.27;2.50;;;;;;;;;;5045883;28;20413;-72
2022/08/02 09:40:40;;;;;;;8.52;2.67;;;;;;;;;;5045811;28;20048;-73
2022/08/02 09:43:09;;;;;;;9.63;2.55;;;;;;;;;;5029078;28;20072;-68
2022/08/02 09:45:38;;;;;;;9.05;2.75;;;;;;;;;;5044370;28;20045;-69
2022/08/02 09:48:08;;;;;;;7.82;2.47;;;;;;;;;;5044942;28;20049;-71
2022/08/02 09:50:39;;;;;;;12.25;3.10;;;;;;;;;;5046047;28;20041;-71
2022/08/02 09:53:11;;;;;;;9.18;2.70;;;;;;;;;;5046716;28;20056;-71
2022/08/02 09:55:37;;;;;;;9.82;2.60;;;;;;;;;;5023615;28;20150;-75
2022/08/02 09:58:16;;;;;;;9.45;2.58;;;;;;;;;;5046834;28;20045;-70
2022/08/02 10:00:57;;;;;;;10.50;2.80;;;;;;;;;;5046029;28;20060;-72
2022/08/02 10:03:23;;;;;;;9.60;3.03;;;;;;;;;;5044588;28;20466;-69
2022/08/02 10:05:54;;;;;;;8.15;2.80;;;;;;;;;;5042858;28;20682;-70
2022/08/02 10:08:21;;;;;;;9.23;2.78;;;;;;;;;;5045699;28;20049;-73
2022/08/02 10:10:48;;;;;;;9.85;2.70;;;;;;;;;;5046168;28;20049;-80
2022/08/02 10:13:14;;;;;;;10.65;2.97;;;;;;;;;;5045056;28;20481;-75
2022/08/02 10:15:43;;;;;;;10.48;3.17;;;;;;;;;;5047034;28;20077;-76
2022/08/02 10:18:11;;;;;;;12.48;3.50;;;;;;;;;;5028468;28;20144;-72
2022/08/02 10:20:43;;;;;;;15.15;3.90;;;;;;;;;;5049408;28;20053;-75
2022/08/02 10:23:13;;;;;;;10.48;3.53;;;;;;;;;;5050526;28;20092;-69
2022/08/02 10:25:39;;;;;;;9.57;3.70;;;;;;;;;;5049031;28;20151;-69
2022/08/02 10:28:06;;;;;;;10.32;3.20;;;;;;;;;;5013282;28;20106;-72
2022/08/02 10:30:34;;;;;;;11.13;3.50;;;;;;;;;;5050198;28;20120;-77
2022/08/02 10:33:01;;;;;;;13.05;3.78;;;;;;;;;;5032060;28;20128;-74
2022/08/02 10:35:29;;;;;;;11.45;3.75;;;;;;;;;;5050210;28;20081;-68
2022/08/02 10:38:02;;;;;;;10.38;3.72;;;;;;;;;;5029038;28;20121;-83
2022/08/02 10:40:43;;;;;;;9.55;3.50;;;;;;;;;;5031810;28;20102;-86
2022/08/02 10:43:10;;;;;;;13.90;3.92;;;;;;;;;;5050064;28;20403;-78
2022/08/02 10:45:36;;;;;;;12.98;3.70;;;;;;;;;;5050019;28;20049;-86
2022/08/02 10:48:04;;;;;;;11.20;3.75;;;;;;;;;;5047492;28;20158;-74
2022/08/02 10:50:51;;;;;;;11.23;4.05;;;;;;;;;;5030112;28;20068;-71
2022/08/02 10:53:22;;;;;;;11.75;3.85;;;;;;;;;;5029966;28;20148;-73
2022/08/02 10:55:48;;;;;;;11.32;3.90;;;;;;;;;;5027780;28;20132;-72
2022/08/02 10:58:22;;;;;;;10.25;3.88;;;;;;;;;;5031263;28;20053;-74
2022/08/02 11:00:51;;;;;;;13.82;3.55;;;;;;;;;;5029493;28;20120;-71
2022/08/02 11:03:17;;;;;;;;;;;;;;;;;;5032002;28;20055;-70
2022/08/02 11:05:59;;;;;;;11.25;3.83;;;;;;;;;;5046559;28;20324;-69
2022/08/02 11:08:25;;;;;;;10.98;3.88;;;;;;;;;;5013831;28;20154;-76
2022/08/02 11:10:51;;;;;;;;;;;;;;;;;;5047027;28;20049;-82
2022/08/02 11:13:21;;;;;;;14.70;3.92;;;;;;;;;;5044286;28;19920;-77
2022/08/02 11:15:47;;;;;;;15.00;3.85;;;;;;;;;;5048223;28;20383;-71
2022/08/02 11:18:13;;;;;;;;;;;;;;;;;;5030720;28;20139;-74
2022/08/02 11:20:39;;;;;;;9.93;3.45;;;;;;;;;;5048944;28;19971;-84
2022/08/02 11:23:23;;;;;;;12.68;3.80;;;;;;;;;;5048005;28;20410;-89
2022/08/02 11:25:50;;;;;;;10.90;4.13;;;;;;;;;;5046264;28;20040;-71
2022/08/02 11:28:17;;;;;;;13.25;4.30;;;;;;;;;;5048748;28;20065;-69
2022/08/02 11:30:43;;;;;;;12.13;4.30;;;;;;;;;;5030506;28;20445;-83
2022/08/02 11:33:09;;;;;;;10.25;4.18;;;;;;;;;;5049055;28;20049;-80
2022/08/02 11:35:39;;;;;;;12.30;4.13;;;;;;;;;;5029370;28;20041;-80
2022/08/02 11:38:16;;;;;;;13.57;3.88;;;;;;;;;;5048306;28;20049;-84
2022/08/02 11:40:43;;;;;;;12.27;4.20;;;;;;;;;;5047768;28;20045;-80
2022/08/02 11:43:20;;;;;;;13.15;4.32;;;;;;;;;;5046232;28;20116;-71
2022/08/02 11:45:48;;;;;;;10.82;4.30;;;;;;;;;;5031263;28;20438;-67
2022/08/02 11:48:22;;;;;;;10.52;4.07;;;;;;;;;;5030557;28;20049;-72
2022/08/02 11:51:02;;;;;;;11.68;3.80;;;;;;;;;;5047170;28;20457;-70
2022/08/02 11:53:28;;;;;;;10.52;4.10;;;;;;;;;;5048656;28;20207;-67
2022/08/02 11:55:55;;;;;;;;;;;;;;;;;;5045617;28;20196;-70
2022/08/02 11:58:22;;;;;;;10.95;3.60;;;;;;;;;;5048138;28;19925;-71
2022/08/02 12:00:49;;;;;;;12.85;3.70;;;;;;;;;;5048090;28;20045;-69
2022/08/02 12:03:15;;;;;;;11.25;3.72;;;;;;;;;;5043573;28;20052;-72
2022/08/02 12:05:48;;;;;;;11.30;4.72;;;;;;;;;;5025778;28;20198;-80
2022/08/02 12:08:15;;;;;;;11.30;3.78;;;;;;;;;;5045552;28;20140;-70
2022/08/02 12:10:48;;;;;;;9.05;3.90;;;;;;;;;;5046619;28;20144;-78
2022/08/02 12:13:14;;;;;;;10.90;4.07;;;;;;;;;;5027071;28;20095;-73
2022/08/02 12:15:44;;;;;;;10.35;4.53;;;;;;;;;;5035648;28;20041;-74
2022/08/02 12:21:24;;;;;;;12.90;4.85;;;;;;;;;;5038198;28;20084;-73
2022/08/02 12:24:03;;;;;;;11.07;4.27;;;;;;;;;;5047495;28;20052;-71
2022/08/02 12:26:29;;;;;;;12.55;5.30;;;;;;;;;;5027806;28;20105;-69
2022/08/02 12:29:08;;;;;;;11.82;5.20;;;;;;;;;;5037979;28;20045;-75
2022/08/02 12:31:41;;;;;;;13.70;5.97;;;;;;;;;;5039538;28;20523;-71
2022/08/02 12:34:17;;;;;;;13.13;5.68;;;;;;;;;;5032538;28;20149;-69
2022/08/02 12:36:43;;;;;;;15.35;6.72;;;;;;;;;;5032907;28;20048;-71
2022/08/02 12:39:14;;;;;;;13.50;6.60;;;;;;;;;;5037548;28;20121;-80
2022/08/02 12:41:41;;;;;;;15.23;6.30;;;;;;;;;;5037152;28;20161;-79
2022/08/02 12:44:15;;;;;;;13.85;6.13;;;;;;;;;;5018944;28;20097;-77
2022/08/02 12:46:41;;;;;;;15.13;7.10;;;;;;;;;;5036116;28;20107;-72
2022/08/02 12:49:19;;;;;;;13.65;6.05;;;;;;;;;;5039560;28;20151;-72
2022/08/02 12:51:47;;;;;;;11.90;6.03;;;;;;;;;;5046450;28;20106;-73
2022/08/02 12:54:19;;;;;;;12.60;5.50;;;;;;;;;;5025472;28;20519;-78
2022/08/02 12:56:45;;;;;;;11.43;5.22;;;;;;;;;;5023010;28;20093;-73
2022/08/02 12:59:16;;;;;;;10.90;5.10;;;;;;;;;;5038908;28;20731;-69
2022/08/02 13:01:46;;;;;;;12.48;5.43;;;;;;;;;;5027664;28;20104;-73
2022/08/02 13:04:15;;;;;;;13.95;6.10;;;;;;;;;;5045870;28;20049;-71
2022/08/02 13:06:42;;;;;;;12.52;5.75;;;;;;;;;;5032447;28;20049;-71
2022/08/02 13:09:13;;;;;;;13.90;6.00;;;;;;;;;;5041861;28;20045;-72
2022/08/02 13:11:39;;;;;;;13.63;6.13;;;;;;;;;;5046690;28;20049;-74
2022/08/02 13:14:05;;;;;;;12.13;5.95;;;;;;;;;;5046114;28;20119;-72
2022/08/02 13:16:34;;;;;;;14.45;5.75;;;;;;;;;;5046702;28;20195;-74
2022/08/02 13:19:04;;;;;;;14.98;5.95;;;;;;;;;;5022373;28;20125;-80
2022/08/02 13:21:31;;;;;;;13.50;6.25;;;;;;;;;;5044241;28;20268;-75
2022/08/02 13:23:57;;;;;;;21.35;6.38;;;;;;;;;;5039629;28;20487;-69
2022/08/02 13:26:23;;;;;;;13.02;6.45;;;;;;;;;;5044499;28;20102;-70
2022/08/02 13:28:49;;;;;;;16.10;5.90;;;;;;;;;;5040054;28;20535;-75
2022/08/02 13:31:15;;;;;;;11.52;5.25;;;;;;;;;;5042161;28;20168;-76
2022/08/02 13:33:41;;;;;;;12.90;5.43;;;;;;;;;;5029836;28;20048;-78
2022/08/02 13:36:07;;;;;;;10.85;4.70;;;;;;;;;;5045243;28;20143;-81
2022/08/02 13:38:33;;;;;;;11.77;5.20;;;;;;;;;;5027512;28;20037;-73
2022/08/02 13:41:08;;;;;;;14.10;5.30;;;;;;;;;;5025348;28;20118;-71
2022/08/02 13:43:35;;;;;;;13.05;4.80;;;;;;;;;;5048908;28;20067;-66
2022/08/02 13:46:03;;;;;;;13.65;5.55;;;;;;;;;;5040364;28;20052;-78
2022/08/02 13:48:29;;;;;;;12.95;5.45;;;;;;;;;;5030171;28;20526;-79
2022/08/02 13:50:55;;;;;;;13.63;5.75;;;;;;;;;;5045813;28;20190;-76
2022/08/02 13:53:21;;;;;;;13.25;5.85;;;;;;;;;;5049263;28;20258;-70
2022/08/02 13:55:47;;;;;;;13.68;6.65;;;;;;;;;;5032694;28;20041;-67
2022/08/02 13:58:13;;;;;;;13.32;6.80;;;;;;;;;;5049664;28;20073;-70
2022/08/02 14:00:39;;;;;;;15.18;6.20;;;;;;;;;;5046628;28;20128;-80
2022/08/02 14:03:14;;;;;;;14.02;7.65;;;;;;;;;;5034213;28;20073;-73
2022/08/02 14:05:42;;;;;;;14.70;7.70;;;;;;;;;;5030097;28;20037;-80
2022/08/02 14:08:08;;;;;;;16.73;7.70;;;;;;;;;;5031016;28;20049;-77
2022/08/02 14:10:34;;;;;;;15.88;7.40;;;;;;;;;;5047773;28;20155;-70
2022/08/02 14:13:03;;;;;;;14.32;8.00;;;;;;;;;;5050676;28;20114;-74
2022/08/02 14:15:30;;;;;;;15.32;6.95;;;;;;;;;;5046777;28;20090;-76
2022/08/02 14:17:56;;;;;;;12.65;6.85;;;;;;;;;;5047751;28;20384;-71
2022/08/02 14:20:25;;;;;;;14.32;7.10;;;;;;;;;;5029250;28;20048;-78
2022/08/02 14:22:51;;;;;;;16.45;7.35;;;;;;;;;;5012294;28;20072;-76
2022/08/02 14:25:18;;;;;;;18.10;7.97;;;;;;;;;;5012640;28;20041;-74
2022/08/02 14:27:44;;;;;;;15.25;7.22;;;;;;;;;;5047465;28;20063;-73
2022/08/02 14:30:10;;;;;;;12.88;6.85;;;;;;;;;;5025091;28;20053;-72
2022/08/02 14:32:39;;;;;;;15.80;7.13;;;;;;;;;;5043262;28;20444;-80
2022/08/02 14:35:06;;;;;;;16.17;6.82;;;;;;;;;;5047904;28;20190;-71
2022/08/02 14:37:33;;;;;;;15.15;6.63;;;;;;;;;;5027491;28;20445;-76
2022/08/02 14:39:59;;;;;;;17.13;7.20;;;;;;;;;;5048058;28;20045;-74
2022/08/02 14:42:25;;;;;;;15.23;6.95;;;;;;;;;;5040593;28;20127;-70
2022/08/02 14:44:51;;;;;;;14.60;7.70;;;;;;;;;;5024165;28;20133;-76
2022/08/02 14:47:17;;;;;;;15.15;7.05;;;;;;;;;;5043283;28;20452;-74
2022/08/02 14:49:45;;;;;;;16.92;7.80;;;;;;;;;;5041783;28;20136;-71
2022/08/02 14:52:13;;;;;;;17.10;7.78;;;;;;;;;;5011877;28;20064;-72